Time;durP1;ratioP1;P1;durP2;ratioP2;P2;SDS_P1;SDS_P2;PMS_P1;PMS_P2;Temp;Humidity;BMP_temperature;BMP_pressure;BME280_temperature;BME280_humidity;BME280_pressure;Samples;Min_cycle;Max_cycle;Signal;HPM_P1;HPM_P2
2022/04/14 00:00:53;;;;;;;;;;;;;;;;;;5070761;28;19916;-77
2022/04/14 00:03:19;;;;;;;;;;;;;;;;;;5073995;28;19923;-77
2022/04/14 00:05:45;;;;;;;;;;;;;;;;;;5073781;28;20362;-77
2022/04/14 00:08:10;;;;;;;;;;;;;;;;;;5073561;28;20271;-78
2022/04/14 00:10:35;;;;;;;;;;;;;;;;;;5073797;28;20003;-78
2022/04/14 00:13:01;;;;;;;;;;;;;;;;;;5073989;28;19921;-78
2022/04/14 00:15:27;;;;;;;;;;;;;;;;;;5071992;28;20004;-78
2022/04/14 00:17:53;;;;;;;;;;;;;;;;;;5071471;28;20290;-77
2022/04/14 00:20:18;;;;;;;;;;;;;;;;;;5071809;28;19916;-78
2022/04/14 00:22:43;;;;;;;;;;;;;;;;;;5071636;28;20504;-78
2022/04/14 00:25:10;;;;;;;;;;;;;;;;;;5071445;28;19920;-77
2022/04/14 00:27:36;;;;;;;;;;;;;;;;;;5071465;28;19916;-77
2022/04/14 00:30:01;;;;;;;;;;;;;;;;;;5087062;28;19950;-78
2022/04/14 00:32:27;;;;;;;;;;;;;;;;;;5113227;28;20396;-78
2022/04/14 00:34:52;;;;;;;;;;;;;;;;;;5110783;28;20022;-78
2022/04/14 00:37:17;;;;;;;;;;;;;;;;;;5111810;28;19915;-78
2022/04/14 00:39:43;;;;;;;;;;;;;;;;;;5111905;28;19916;-78
2022/04/14 00:42:12;;;;;;;;;;;;;;;;;;5111874;28;20032;-78
2022/04/14 00:44:37;;;;;;;;;;;;;;;;;;5103816;28;19917;-78
2022/04/14 00:47:04;;;;;;;;;;;;;;;;;;5071156;28;20532;-78
2022/04/14 00:49:29;;;;;;;;;;;;;;;;;;5073172;28;19920;-77
2022/04/14 00:51:54;;;;;;;;;;;;;;;;;;5072545;28;19950;-77
2022/04/14 00:54:20;;;;;;;;;;;;;;;;;;5072093;28;19975;-78
2022/04/14 00:56:45;;;;;;;;;;;;;;;;;;5073142;28;19921;-78
2022/04/14 00:59:10;;;;;;;;;;;;;;;;;;5073209;28;20473;-78
2022/04/14 01:01:36;;;;;;;;;;;;;;;;;;5073427;28;20027;-77
2022/04/14 01:04:02;;;;;;;;;;;;;;;;;;5073141;28;19960;-77
2022/04/14 01:06:27;;;;;;;;;;;;;;;;;;5073532;28;19916;-77
2022/04/14 01:11:38;;;;;;;;;;;;;;;;;;5104702;28;19945;-77
2022/04/14 01:14:03;;;;;;;;;;;;;;;;;;5117913;28;19926;-77
2022/04/14 01:16:29;;;;;;;;;;;;;;;;;;5115914;28;19912;-77
2022/04/14 01:18:54;;;;;;;;;;;;;;;;;;5117404;28;20438;-76
2022/04/14 01:21:21;;;;;;;;;;;;;;;;;;5104231;28;19916;-77
2022/04/14 01:23:47;;;;;;;;;;;;;;;;;;5097112;28;20297;-77
2022/04/14 01:26:12;;;;;;;;;;;;;;;;;;5096902;28;19916;-78
2022/04/14 01:28:37;;;;;;;;;;;;;;;;;;5096917;28;19916;-77
2022/04/14 01:31:03;;;;;;;;;;;;;;;;;;5095472;28;20015;-78
2022/04/14 01:33:28;;;;;;;;;;;;;;;;;;5096323;28;19927;-77
2022/04/14 01:35:54;;;;;;;;;;;;;;;;;;5096760;28;20006;-77
2022/04/14 01:38:19;;;;;;;;;;;;;;;;;;5083794;28;19916;-77
2022/04/14 01:40:44;;;;;;;;;;;;;;;;;;5076585;28;19916;-77
2022/04/14 01:43:10;;;;;;;;;;;;;;;;;;5076367;28;19916;-77
2022/04/14 01:45:35;;;;;;;;;;;;;;;;;;5074826;28;19917;-77
2022/04/14 01:48:01;;;;;;;;;;;;;;;;;;5076204;28;20042;-77
2022/04/14 01:50:26;;;;;;;;;;;;;;;;;;5076283;28;19916;-77
2022/04/14 01:52:51;;;;;;;;;;;;;;;;;;5076335;28;20019;-77
2022/04/14 01:55:16;;;;;;;;;;;;;;;;;;5074685;28;19970;-77
2022/04/14 01:57:42;;;;;;;;;;;;;;;;;;5076503;28;19923;-76
2022/04/14 02:00:08;;;;;;;;;;;;;;;;;;5076086;28;20027;-77
2022/04/14 02:02:34;;;;;;;;;;;;;;;;;;5075695;28;19958;-77
2022/04/14 02:04:59;;;;;;;;;;;;;;;;;;5075987;28;19917;-77
2022/04/14 02:07:25;;;;;;;;;;;;;;;;;;5074553;28;19962;-77
2022/04/14 02:09:50;;;;;;;;;;;;;;;;;;5075905;28;20263;-77
2022/04/14 02:12:15;;;;;;;;;;;;;;;;;;5072434;28;20008;-77
2022/04/14 02:14:41;;;;;;;;;;;;;;;;;;5073567;28;19972;-77
2022/04/14 02:17:06;;;;;;;;;;;;;;;;;;5073175;28;19927;-77
2022/04/14 02:19:31;;;;;;;;;;;;;;;;;;5073326;28;19927;-78
2022/04/14 02:21:58;;;;;;;;;;;;;;;;;;5073576;28;19916;-77
2022/04/14 02:24:26;;;;;;;;;;;;;;;;;;5073571;28;19916;-78
2022/04/14 02:26:52;;;;;;;;;;;;;;;;;;5073517;28;19948;-79
2022/04/14 02:29:17;;;;;;;;;;;;;;;;;;5111147;28;20345;-78
2022/04/14 02:31:43;;;;;;;;;;;;;;;;;;5113934;28;19923;-77
2022/04/14 02:34:08;;;;;;;;;;;;;;;;;;5112701;28;19920;-78
2022/04/14 02:36:33;;;;;;;;;;;;;;;;;;5113698;28;19919;-77
2022/04/14 02:38:59;;;;;;;;;;;;;;;;;;5113751;28;19959;-78
2022/04/14 02:41:24;;;;;;;;;;;;;;;;;;5113703;28;20311;-77
2022/04/14 02:43:50;;;;;;;;;;;;;;;;;;5112360;28;20323;-78
2022/04/14 02:46:15;;;;;;;;;;;;;;;;;;5115364;28;19915;-77
2022/04/14 02:48:41;;;;;;;;;;;;;;;;;;5115735;28;19916;-77
2022/04/14 02:51:06;;;;;;;;;;;;;;;;;;5115736;28;20002;-77
2022/04/14 02:53:31;;;;;;;;;;;;;;;;;;5099169;28;19924;-77
2022/04/14 02:55:57;;;;;;;;;;;;;;;;;;5074540;28;19920;-78
2022/04/14 02:58:22;;;;;;;;;;;;;;;;;;5075138;28;19924;-77
2022/04/14 03:00:49;;;;;;;;;;;;;;;;;;5073655;28;19942;-77
2022/04/14 03:03:15;;;;;;;;;;;;;;;;;;5074742;28;19924;-77
2022/04/14 03:05:40;;;;;;;;;;;;;;;;;;5074477;28;20374;-76
2022/04/14 03:08:06;;;;;;;;;;;;;;;;;;5074856;28;19916;-76
2022/04/14 03:10:31;;;;;;;;;;;;;;;;;;5073261;28;19966;-78
2022/04/14 03:12:57;;;;;;;;;;;;;;;;;;5056424;28;19955;-77
2022/04/14 03:15:23;;;;;;;;;;;;;;;;;;5074266;28;20370;-76
2022/04/14 03:17:50;;;;;;;;;;;;;;;;;;5073262;28;19923;-76
2022/04/14 03:20:16;;;;;;;;;;;;;;;;;;5080051;28;19915;-76
2022/04/14 03:22:41;;;;;;;;;;;;;;;;;;5094971;28;19931;-77
2022/04/14 03:25:07;;;;;;;;;;;;;;;;;;5094493;28;19980;-77
2022/04/14 03:27:33;;;;;;;;;;;;;;;;;;5089190;28;19916;-77
2022/04/14 03:29:58;;;;;;;;;;;;;;;;;;5073268;28;19917;-77
2022/04/14 03:32:25;;;;;;;;;;;;;;;;;;5074189;28;20310;-77
2022/04/14 03:34:51;;;;;;;;;;;;;;;;;;5074529;28;19925;-77
2022/04/14 03:37:16;;;;;;;;;;;;;;;;;;5074545;28;20282;-76
2022/04/14 03:39:41;;;;;;;;;;;;;;;;;;5074267;28;19942;-77
2022/04/14 03:42:07;;;;;;;;;;;;;;;;;;5073980;28;19917;-77
2022/04/14 03:44:32;;;;;;;;;;;;;;;;;;5073504;28;19961;-77
2022/04/14 03:46:57;;;;;;;;;;;;;;;;;;5074332;28;20367;-76
2022/04/14 03:49:23;;;;;;;;;;;;;;;;;;5074003;28;19923;-77
2022/04/14 03:51:48;;;;;;;;;;;;;;;;;;5073922;28;19921;-77
2022/04/14 03:54:13;;;;;;;;;;;;;;;;;;5073762;28;20015;-77
2022/04/14 03:56:39;;;;;;;;;;;;;;;;;;5073563;28;19921;-77
2022/04/14 03:59:04;;;;;;;;;;;;;;;;;;5074021;28;19970;-78
2022/04/14 04:01:29;;;;;;;;;;;;;;;;;;5073823;28;20382;-78
2022/04/14 04:03:55;;;;;;;;;;;;;;;;;;5072687;28;19928;-77
2022/04/14 04:06:20;;;;;;;;;;;;;;;;;;5073812;28;20030;-77
2022/04/14 04:08:45;;;;;;;;;;;;;;;;;;5074260;28;19916;-77
2022/04/14 04:11:11;;;;;;;;;;;;;;;;;;5073844;28;19923;-77
2022/04/14 04:13:36;;;;;;;;;;;;;;;;;;5073888;28;19927;-78
2022/04/14 04:16:01;;;;;;;;;;;;;;;;;;5073688;28;19916;-77
2022/04/14 04:18:27;;;;;;;;;;;;;;;;;;5074300;28;20307;-76
2022/04/14 04:20:52;;;;;;;;;;;;;;;;;;5073633;28;20022;-77
2022/04/14 04:23:17;;;;;;;;;;;;;;;;;;5074023;28;19923;-77
2022/04/14 04:25:43;;;;;;;;;;;;;;;;;;5072512;28;19923;-77
2022/04/14 04:28:08;;;;;;;;;;;;;;;;;;5073661;28;19973;-77
2022/04/14 04:30:33;;;;;;;;;;;;;;;;;;5073850;28;20007;-77
2022/04/14 04:32:59;;;;;;;;;;;;;;;;;;5072521;28;19970;-78
2022/04/14 04:35:24;;;;;;;;;;;;;;;;;;5073356;28;19967;-78
2022/04/14 04:37:49;;;;;;;;;;;;;;;;;;5073580;28;19916;-78
2022/04/14 04:40:16;;;;;;;;;;;;;;;;;;5073421;28;19917;-78
2022/04/14 04:42:41;;;;;;;;;;;;;;;;;;5076928;28;19920;-78
2022/04/14 04:45:07;;;;;;;;;;;;;;;;;;5077213;28;20298;-78
2022/04/14 04:47:32;;;;;;;;;;;;;;;;;;5083344;28;19965;-76
2022/04/14 04:49:59;;;;;;;;;;;;;;;;;;5096737;28;19916;-77
2022/04/14 04:52:25;;;;;;;;;;;;;;;;;;5097791;28;19923;-77
2022/04/14 04:54:50;;;;;;;;;;;;;;;;;;5102280;28;19919;-77
2022/04/14 04:57:15;;;;;;;;;;;;;;;;;;5117801;28;19927;-76
2022/04/14 04:59:40;;;;;;;;;;;;;;;;;;5118131;28;19919;-77
2022/04/14 05:02:06;;;;;;;;;;;;;;;;;;5117754;28;19916;-77
2022/04/14 05:04:31;;;;;;;;;;;;;;;;;;5117884;28;20373;-77
2022/04/14 05:06:56;;;;;;;;;;;;;;;;;;5108872;28;19948;-76
2022/04/14 05:09:23;;;;;;;;;;;;;;;;;;5077054;28;19923;-76
2022/04/14 05:11:49;;;;;;;;;;;;;;;;;;5077113;28;19924;-77
2022/04/14 05:14:14;;;;;;;;;;;;;;;;;;5076057;28;20290;-76
2022/04/14 05:16:40;;;;;;;;;;;;;;;;;;5076692;28;19951;-77
2022/04/14 05:19:05;;;;;;;;;;;;;;;;;;5076329;28;19916;-77
2022/04/14 05:21:30;;;;;;;;;;;;;;;;;;5088166;28;19916;-77
2022/04/14 05:23:56;;;;;;;;;;;;;;;;;;5097214;28;19916;-78
2022/04/14 05:26:21;;;;;;;;;;;;;;;;;;5096971;28;19920;-78
2022/04/14 05:28:46;;;;;;;;;;;;;;;;;;5096886;28;19916;-78
2022/04/14 05:31:12;;;;;;;;;;;;;;;;;;5095805;28;19927;-78
2022/04/14 05:33:37;;;;;;;;;;;;;;;;;;5096213;28;19931;-77
2022/04/14 05:36:03;;;;;;;;;;;;;;;;;;5095564;28;19931;-77
2022/04/14 05:38:28;;;;;;;;;;;;;;;;;;5096802;28;20002;-77
2022/04/14 05:40:54;;;;;;;;;;;;;;;;;;5096595;28;19916;-77
2022/04/14 05:43:25;;;;;;;;;;;;;;;;;;5096619;28;19963;-77
2022/04/14 05:45:50;;;;;;;;;;;;;;;;;;5078754;28;20006;-76
2022/04/14 05:48:16;;;;;;;;;;;;;;;;;;5075605;28;20019;-78
2022/04/14 05:50:42;;;;;;;;;;;;;;;;;;5085907;28;19936;-77
2022/04/14 05:53:08;;;;;;;;;;;;;;;;;;5114656;28;19974;-78
2022/04/14 05:55:33;;;;;;;;;;;;;;;;;;5116709;28;19965;-79
2022/04/14 05:57:58;;;;;;;;;;;;;;;;;;5080829;28;19939;-78
2022/04/14 06:00:24;;;;;;;;;;;;;;;;;;5076016;28;20285;-77
2022/04/14 06:02:49;;;;;;;;;;;;;;;;;;5076222;28;19923;-77
2022/04/14 06:05:14;;;;;;;;;;;;;;;;;;5076003;28;19986;-77
2022/04/14 06:07:40;;;;;;;;;;;;;;;;;;5076321;28;19923;-78
2022/04/14 06:10:05;;;;;;;;;;;;;;;;;;5075979;28;19916;-77
2022/04/14 06:12:30;;;;;;;;;;;;;;;;;;5095453;28;19916;-77
2022/04/14 06:14:56;;;;;;;;;;;;;;;;;;5096317;28;20029;-77
2022/04/14 06:17:21;;;;;;;;;;;;;;;;;;5092813;28;20391;-77
2022/04/14 06:19:47;;;;;;;;;;;;;;;;;;5076309;28;19923;-77
2022/04/14 06:22:12;;;;;;;;;;;;;;;;;;5076509;28;20287;-81
2022/04/14 06:24:37;;;;;;;;;;;;;;;;;;5075646;28;20007;-77
2022/04/14 06:27:03;;;;;;;;;;;;;;;;;;5074778;28;20011;-78
2022/04/14 06:29:28;;;;;;;;;;;;;;;;;;5075001;28;19916;-78
2022/04/14 06:31:54;;;;;;;;;;;;;;;;;;5091965;28;20369;-78
2022/04/14 06:34:19;;;;;;;;;;;;;;;;;;5076368;28;20046;-77
2022/04/14 06:36:44;;;;;;;;;;;;;;;;;;5086564;28;19923;-77
2022/04/14 06:39:12;;;;;;;;;;;;;;;;;;5096008;28;19916;-80
2022/04/14 06:41:38;;;;;;;;;;;;;;;;;;5095682;28;20362;-78
2022/04/14 06:44:04;;;;;;;;;;;;;;;;;;5097497;28;20389;-77
2022/04/14 06:46:29;;;;;;;;;;;;;;;;;;5115636;28;19942;-76
2022/04/14 06:48:55;;;;;;;;;;;;;;;;;;5117171;28;20288;-78
2022/04/14 06:51:21;;;;;;;;;;;;;;;;;;5115684;28;19916;-79
2022/04/14 06:53:48;;;;;;;;;;;;;;;;;;5117468;28;20019;-79
2022/04/14 06:56:13;;;;;;;;;;;;;;;;;;5116340;28;19923;-79
2022/04/14 06:58:38;;;;;;;;;;;;;;;;;;5117626;28;20018;-79
2022/04/14 07:01:04;;;;;;;;;;;;;;;;;;5112303;28;19916;-81
2022/04/14 07:03:29;;;;;;;;;;;;;;;;;;5099187;28;20057;-84
2022/04/14 07:05:56;;;;;;;;;;;;;;;;;;5093374;28;19955;-77
2022/04/14 07:08:25;;;;;;;;;;;;;;;;;;5092634;28;19916;-78
2022/04/14 07:10:50;;;;;;;;;;;;;;;;;;5092028;28;19916;-78
2022/04/14 07:13:16;;;;;;;;;;;;;;;;;;5093177;28;19923;-78
2022/04/14 07:15:41;;;;;;;;;;;;;;;;;;5110381;28;19946;-78
2022/04/14 07:18:07;;;;;;;;;;;;;;;;;;5114386;28;20393;-78
2022/04/14 07:20:32;;;;;;;;;;;;;;;;;;5116827;28;19916;-78
2022/04/14 07:23:02;;;;;;;;;;;;;;;;;;5115831;28;19912;-79
2022/04/14 07:25:29;;;;;;;;;;;;;;;;;;5116382;28;19915;-79
2022/04/14 07:27:54;;;;;;;;;;;;;;;;;;5116481;28;19960;-78
2022/04/14 07:30:20;;;;;;;;;;;;;;;;;;5116849;28;20421;-76
2022/04/14 07:32:46;;;;;;;;;;;;;;;;;;5114142;28;19915;-78
2022/04/14 07:35:12;;;;;;;;;;;;;;;;;;5117945;28;20305;-80
2022/04/14 07:37:37;;;;;;;;;;;;;;;;;;5117774;28;19915;-82
2022/04/14 07:40:03;;;;;;;;;;;;;;;;;;5129850;28;19915;-83
2022/04/14 07:42:33;;;;;;;;;;;;;;;;;;5108204;28;19922;-83
2022/04/14 07:44:58;;;;;;;;;;;;;;;;;;5101229;28;19916;-82
2022/04/14 07:47:24;;;;;;;;;;;;;;;;;;5097370;28;19941;-79
2022/04/14 07:49:49;;;;;;;;;;;;;;;;;;5104108;28;19916;-80
2022/04/14 07:52:15;;;;;;;;;;;;;;;;;;5107441;28;19916;-81
2022/04/14 07:54:40;;;;;;;;;;;;;;;;;;5104596;28;20380;-82
2022/04/14 07:57:05;;;;;;;;;;;;;;;;;;5101090;28;19951;-79
2022/04/14 07:59:30;;;;;;;;;;;;;;;;;;5089166;28;19923;-78
2022/04/14 08:02:00;;;;;;;;;;;;;;;;;;5083346;28;19985;-77
2022/04/14 08:04:26;;;;;;;;;;;;;;;;;;5099038;28;19959;-79
2022/04/14 08:06:52;;;;;;;;;;;;;;;;;;5082670;28;20354;-82
2022/04/14 08:09:17;;;;;;;;;;;;;;;;;;5094957;28;20002;-79
2022/04/14 08:11:42;;;;;;;;;;;;;;;;;;5096339;28;19923;-81
2022/04/14 08:14:07;;;;;;;;;;;;;;;;;;5094434;28;19970;-81
2022/04/14 08:16:34;;;;;;;;;;;;;;;;;;5095372;28;19916;-81
2022/04/14 08:18:59;;;;;;;;;;;;;;;;;;5094541;28;20381;-82
2022/04/14 08:21:25;;;;;;;;;;;;;;;;;;5095082;28;19958;-76
2022/04/14 08:23:52;;;;;;;;;;;;;;;;;;5114285;28;19915;-78
2022/04/14 08:26:17;;;;;;;;;;;;;;;;;;5115798;28;19955;-77
2022/04/14 08:28:43;;;;;;;;;;;;;;;;;;5119846;28;19915;-79
2022/04/14 08:31:10;;;;;;;;;;;;;;;;;;5110598;28;19922;-79
2022/04/14 08:33:37;;;;;;;;;;;;;;;;;;5098957;28;19946;-82
2022/04/14 08:36:12;;;;;;;;;;;;;;;;;;5082986;28;20430;-79
2022/04/14 08:38:42;;;;;;;;;;;;;;;;;;5096380;28;20343;-78
2022/04/14 08:41:07;;;;;;;;;;;;;;;;;;5079904;28;19916;-78
2022/04/14 08:43:34;;;;;;;;;;;;;;;;;;5090599;28;19923;-76
2022/04/14 08:46:00;;;;;;;;;;;;;;;;;;5094758;28;19938;-78
2022/04/14 08:48:26;;;;;;;;;;;;;;;;;;5098028;28;19920;-80
2022/04/14 08:50:51;;;;;;;;;;;;;;;;;;5079222;28;20019;-77
2022/04/14 08:53:18;;;;;;;;;;;;;;;;;;5072935;28;19959;-77
2022/04/14 08:55:43;;;;;;;;;;;;;;;;;;5080413;28;20015;-77
2022/04/14 08:58:12;;;;;;;;;;;;;;;;;;5085113;28;19967;-84
2022/04/14 09:00:38;;;;;;;;;;;;;;;;;;5093830;28;19956;-79
2022/04/14 09:03:06;;;;;;;;;;;;;;;;;;5081429;28;19924;-80
2022/04/14 09:05:34;;;;;;;;;;;;;;;;;;5100729;28;19969;-83
2022/04/14 09:08:00;;;;;;;;;;;;;;;;;;5101249;28;19919;-80
2022/04/14 09:10:29;;;;;;;;;;;;;;;;;;5102843;28;20371;-76
2022/04/14 09:12:56;;;;;;;;;;;;;;;;;;5101105;28;19969;-76
2022/04/14 09:15:21;;;;;;;;;;;;;;;;;;5099691;28;19927;-77
2022/04/14 09:17:47;;;;;;;;;;;;;;;;;;5099208;28;20358;-76
2022/04/14 09:20:48;;;;;;;;;;;;;;;;;;5099130;28;19967;-76
2022/04/14 09:23:25;;;;;;;;;;;;;;;;;;5055072;28;19979;-76
2022/04/14 09:26:06;;;;;;;;;;;;;;;;;;5090117;28;19916;-76
2022/04/14 09:28:32;;;;;;;;;;;;;;;;;;5095096;28;19923;-75
2022/04/14 09:30:58;;;;;;;;;;;;;;;;;;5097219;28;19916;-76
2022/04/14 09:33:24;;;;;;;;;;;;;;;;;;5098148;28;19920;-76
2022/04/14 09:36:07;;;;;;;;;;;;;;;;;;5098205;28;19926;-76
2022/04/14 09:38:52;;;;;;;;;;;;;;;;;;5098876;28;19962;-76
2022/04/14 09:41:39;;;;;;;;;;;;;;;;;;5080789;28;20368;-76
2022/04/14 09:44:06;;;;;;;;;;;;;;;;;;5098618;28;20265;-76
2022/04/14 09:46:32;;;;;;;;;;;;;;;;;;5097628;28;19916;-76
2022/04/14 09:49:07;;;;;;;;;;;;;;;;;;5098351;28;19916;-76
2022/04/14 09:51:35;;;;;;;;;;;;;;;;;;5098595;28;19962;-76
2022/04/14 09:54:07;;;;;;;;;;;;;;;;;;5081860;28;19962;-77
2022/04/14 09:56:52;;;;;;;;;;;;;;;;;;5099189;28;19924;-76
2022/04/14 09:59:18;;;;;;;;;;;;;;;;;;5100219;28;19916;-76
2022/04/14 10:01:44;;;;;;;;;;;;;;;;;;5098271;28;19961;-76
2022/04/14 10:04:28;;;;;;;;;;;;;;;;;;5097832;28;19951;-76
2022/04/14 10:07:02;;;;;;;;;;;;;;;;;;5097464;28;19916;-76
2022/04/14 10:09:30;;;;;;;;;;;;;;;;;;5097770;28;20387;-76
2022/04/14 10:11:55;;;;;;;;;;;;;;;;;;5097512;28;19939;-76
2022/04/14 10:14:24;;;;;;;;;;;;;;;;;;5096672;28;19920;-76
2022/04/14 10:16:50;;;;;;;;;;;;;;;;;;5098456;28;20282;-77
2022/04/14 10:19:15;;;;;;;;;;;;;;;;;;5098376;28;19916;-77
2022/04/14 10:21:43;;;;;;;;;;;;;;;;;;5098788;28;19923;-77
2022/04/14 10:24:08;;;;;;;;;;;;;;;;;;5098154;28;19915;-77
2022/04/14 10:26:35;;;;;;;;;;;;;;;;;;5091669;28;19916;-77
2022/04/14 10:29:00;;;;;;;;;;;;;;;;;;5076871;28;19923;-76
2022/04/14 10:31:27;;;;;;;;;;;;;;;;;;5076768;28;19916;-77
2022/04/14 10:33:53;;;;;;;;;;;;;;;;;;5075249;28;19924;-77
2022/04/14 10:36:18;;;;;;;;;;;;;;;;;;5075602;28;19920;-77
2022/04/14 10:38:47;;;;;;;;;;;;;;;;;;5077880;28;19916;-78
2022/04/14 10:41:19;;;;;;;;;;;;;;;;;;5062072;28;20328;-77
2022/04/14 10:43:46;;;;;;;;;;;;;;;;;;5078580;28;19916;-77
2022/04/14 10:46:16;;;;;;;;;;;;;;;;;;5079239;28;19928;-77
2022/04/14 10:48:42;;;;;;;;;;;;;;;;;;5092870;28;19916;-77
2022/04/14 10:51:13;;;;;;;;;;;;;;;;;;5100403;28;19916;-77
2022/04/14 10:53:48;;;;;;;;;;;;;;;;;;5101197;28;19923;-78
2022/04/14 10:56:33;;;;;;;;;;;;;;;;;;5101291;28;19927;-78
2022/04/14 10:58:59;;;;;;;;;;;;;;;;;;5100747;28;19922;-77
2022/04/14 11:01:44;;;;;;;;;;;;;;;;;;5101319;28;20366;-78
2022/04/14 11:04:24;;;;;;;;;;;;;;;;;;5101523;28;19969;-77
2022/04/14 11:06:52;;;;;;;;;;;;;;;;;;5099781;28;19959;-77
2022/04/14 11:09:37;;;;;;;;;;;;;;;;;;5083540;28;19920;-78
2022/04/14 11:12:02;;;;;;;;;;;;;;;;;;5101223;28;19920;-77
2022/04/14 11:14:28;;;;;;;;;;;;;;;;;;5099477;28;19917;-77
2022/04/14 11:16:53;;;;;;;;;;;;;;;;;;5100570;28;19923;-77
2022/04/14 11:19:19;;;;;;;;;;;;;;;;;;5098380;28;20311;-77
2022/04/14 11:24:39;;;;;;;;;;;;;;;;;;5097170;28;19916;-78
2022/04/14 11:27:07;;;;;;;;;;;;;;;;;;5096276;28;19938;-77
2022/04/14 11:29:33;;;;;;;;;;;;;;;;;;5094464;28;19923;-76
2022/04/14 11:31:58;;;;;;;;;;;;;;;;;;5095470;28;19912;-77
2022/04/14 11:34:37;;;;;;;;;;;;;;;;;;5097031;28;19920;-77
2022/04/14 11:37:03;;;;;;;;;;;;;;;;;;5095419;28;20378;-77
2022/04/14 11:39:29;;;;;;;;;;;;;;;;;;5095530;28;20388;-76
2022/04/14 11:42:23;;;;;;;;;;;;;;;;;;5095585;28;19920;-77
2022/04/14 11:44:49;;;;;;;;;;;;;;;;;;5087697;28;19916;-77
2022/04/14 11:47:14;;;;;;;;;;;;;;;;;;5096489;28;20014;-76
2022/04/14 11:49:40;;;;;;;;;;;;;;;;;;5095996;28;19920;-76
2022/04/14 11:52:05;;;;;;;;;;;;;;;;;;5073996;28;19924;-76
2022/04/14 11:54:31;;;;;;;;;;;;;;;;;;5078548;28;19931;-76
2022/04/14 11:57:12;;;;;;;;;;;;;;;;;;5095281;28;19928;-76
2022/04/14 11:59:45;;;;;;;;;;;;;;;;;;5096889;28;19916;-76
2022/04/14 12:02:18;;;;;;;;;;;;;;;;;;5096532;28;19920;-76
2022/04/14 12:04:43;;;;;;;;;;;;;;;;;;5097008;28;19923;-76
2022/04/14 12:07:09;;;;;;;;;;;;;;;;;;5098266;28;19919;-77
2022/04/14 12:09:34;;;;;;;;;;;;;;;;;;5098462;28;19917;-76
2022/04/14 12:12:09;;;;;;;;;;;;;;;;;;5097551;28;19995;-77
2022/04/14 12:14:34;;;;;;;;;;;;;;;;;;5097793;28;19920;-77
2022/04/14 12:17:00;;;;;;;;;;;;;;;;;;5096969;28;19973;-77
2022/04/14 12:19:38;;;;;;;;;;;;;;;;;;5096366;28;20023;-76
2022/04/14 12:22:05;;;;;;;;;;;;;;;;;;5101008;28;20369;-80
2022/04/14 12:24:30;;;;;;;;;;;;;;;;;;5098770;28;19916;-79
2022/04/14 12:26:56;;;;;;;;;;;;;;;;;;5098585;28;19924;-77
2022/04/14 12:29:22;;;;;;;;;;;;;;;;;;5096805;28;19923;-77
2022/04/14 12:31:48;;;;;;;;;;;;;;;;;;5094670;28;20390;-75
2022/04/14 12:34:14;;;;;;;;;;;;;;;;;;5082691;28;20316;-75
2022/04/14 12:36:39;;;;;;;;;;;;;;;;;;5096270;28;20014;-76
2022/04/14 12:39:06;;;;;;;;;;;;;;;;;;5093716;28;19923;-79
2022/04/14 12:41:35;;;;;;;;;;;;;;;;;;5094380;28;20321;-75
2022/04/14 12:44:01;;;;;;;;;;;;;;;;;;5092199;28;19949;-75
2022/04/14 12:46:27;;;;;;;;;;;;;;;;;;5092721;28;19923;-74
2022/04/14 12:49:12;;;;;;;;;;;;;;;;;;5093613;28;19920;-75
2022/04/14 12:51:42;;;;;;;;;;;;;;;;;;5093500;28;20015;-75
2022/04/14 12:54:08;;;;;;;;;;;;;;;;;;5093793;28;19967;-74
2022/04/14 12:56:35;;;;;;;;;;;;;;;;;;5093843;28;19920;-74
2022/04/14 12:59:14;;;;;;;;;;;;;;;;;;5094213;28;19916;-74
2022/04/14 13:01:45;;;;;;;;;;;;;;;;;;5094560;28;19930;-74
2022/04/14 13:04:11;;;;;;;;;;;;;;;;;;5077499;28;20255;-73
2022/04/14 13:06:36;;;;;;;;;;;;;;;;;;5077473;28;20011;-75
2022/04/14 13:09:16;;;;;;;;;;;;;;;;;;5077572;28;19916;-75
2022/04/14 13:11:42;;;;;;;;;;;;;;;;;;5077035;28;19917;-75
2022/04/14 13:14:18;;;;;;;;;;;;;;;;;;5086385;28;19927;-75
2022/04/14 13:16:44;;;;;;;;;;;;;;;;;;5097230;28;20366;-75
2022/04/14 13:19:10;;;;;;;;;;;;;;;;;;5097825;28;19923;-76
2022/04/14 13:21:35;;;;;;;;;;;;;;;;;;5098636;28;19920;-77
2022/04/14 13:24:01;;;;;;;;;;;;;;;;;;5097851;28;19939;-77
2022/04/14 13:26:26;;;;;;;;;;;;;;;;;;5097975;28;19923;-75
2022/04/14 13:28:51;;;;;;;;;;;;;;;;;;5097704;28;19920;-75
2022/04/14 13:31:17;;;;;;;;;;;;;;;;;;5096401;28;20262;-75
2022/04/14 13:33:42;;;;;;;;;;;;;;;;;;5098103;28;20296;-75
2022/04/14 13:36:07;;;;;;;;;;;;;;;;;;5096771;28;19917;-75
2022/04/14 13:38:33;;;;;;;;;;;;;;;;;;5098061;28;19916;-75
2022/04/14 13:40:58;;;;;;;;;;;;;;;;;;5098006;28;19931;-75
2022/04/14 13:43:24;;;;;;;;;;;;;;;;;;5097591;28;20358;-75
2022/04/14 13:45:49;;;;;;;;;;;;;;;;;;5097017;28;19916;-74
2022/04/14 13:48:14;;;;;;;;;;;;;;;;;;5096731;28;19962;-74
2022/04/14 13:50:43;;;;;;;;;;;;;;;;;;5096286;28;19916;-74
2022/04/14 13:53:10;;;;;;;;;;;;;;;;;;5096841;28;19951;-74
2022/04/14 13:55:37;;;;;;;;;;;;;;;;;;5095136;28;19969;-75
2022/04/14 13:58:03;;;;;;;;;;;;;;;;;;5096317;28;19920;-75
2022/04/14 14:00:28;;;;;;;;;;;;;;;;;;5095217;28;19916;-75
2022/04/14 14:02:54;;;;;;;;;;;;;;;;;;5096382;28;19974;-74
2022/04/14 14:05:19;;;;;;;;;;;;;;;;;;5095420;28;20483;-74
2022/04/14 14:07:44;;;;;;;;;;;;;;;;;;5097036;28;20285;-74
2022/04/14 14:10:10;;;;;;;;;;;;;;;;;;5096694;28;19916;-74
2022/04/14 14:12:38;;;;;;;;;;;;;;;;;;5096183;28;19931;-75
2022/04/14 14:15:03;;;;;;;;;;;;;;;;;;5094198;28;20022;-75
2022/04/14 14:17:28;;;;;;;;;;;;;;;;;;5095198;28;19950;-75
2022/04/14 14:19:54;;;;;;;;;;;;;;;;;;5096030;28;19916;-75
2022/04/14 14:22:19;;;;;;;;;;;;;;;;;;5094753;28;19922;-76
2022/04/14 14:24:44;;;;;;;;;;;;;;;;;;5094556;28;19916;-74
2022/04/14 14:27:10;;;;;;;;;;;;;;;;;;5095861;28;20340;-75
2022/04/14 14:29:35;;;;;;;;;;;;;;;;;;5095801;28;19915;-74
2022/04/14 14:32:02;;;;;;;;;;;;;;;;;;5095847;28;19923;-75
2022/04/14 14:34:27;;;;;;;;;;;;;;;;;;5094313;28;19965;-73
2022/04/14 14:36:52;;;;;;;;;;;;;;;;;;5095695;28;19916;-75
2022/04/14 14:39:19;;;;;;;;;;;;;;;;;;5095087;28;19924;-75
2022/04/14 14:41:45;;;;;;;;;;;;;;;;;;5095290;28;20318;-75
2022/04/14 14:44:12;;;;;;;;;;;;;;;;;;5083706;28;20005;-75
2022/04/14 14:46:37;;;;;;;;;;;;;;;;;;5085431;28;20266;-75
2022/04/14 14:49:02;;;;;;;;;;;;;;;;;;5095505;28;19920;-74
2022/04/14 14:51:28;;;;;;;;;;;;;;;;;;5089693;28;20269;-77
2022/04/14 14:53:54;;;;;;;;;;;;;;;;;;5083969;28;19923;-76
2022/04/14 14:56:20;;;;;;;;;;;;;;;;;;5083376;28;19920;-75
2022/04/14 15:01:45;;;;;;;;;;;;;;;;;;5079301;28;19922;-75
2022/04/14 15:04:13;;;;;;;;;;;;;;;;;;5092870;28;20354;-75
2022/04/14 15:06:39;;;;;;;;;;;;;;;;;;5067911;28;20247;-75
2022/04/14 15:09:05;;;;;;;;;;;;;;;;;;5083891;28;20385;-75
2022/04/14 15:11:31;;;;;;;;;;;;;;;;;;5083727;28;19923;-74
2022/04/14 15:13:56;;;;;;;;;;;;;;;;;;5084665;28;19939;-74
2022/04/14 15:16:22;;;;;;;;;;;;;;;;;;5083154;28;19924;-75
2022/04/14 15:18:47;;;;;;;;;;;;;;;;;;5084700;28;19920;-75
2022/04/14 15:21:12;;;;;;;;;;;;;;;;;;5084991;28;19916;-75
2022/04/14 15:23:38;;;;;;;;;;;;;;;;;;5084706;28;20393;-75
2022/04/14 15:26:03;;;;;;;;;;;;;;;;;;5082234;28;19918;-76
2022/04/14 15:28:30;;;;;;;;;;;;;;;;;;5087396;28;19957;-75
2022/04/14 15:30:59;;;;;;;;;;;;;;;;;;5076933;28;19924;-76
2022/04/14 15:33:26;;;;;;;;;;;;;;;;;;5075470;28;19931;-76
2022/04/14 15:35:51;;;;;;;;;;;;;;;;;;5073943;28;19929;-76
2022/04/14 15:38:16;;;;;;;;;;;;;;;;;;5084391;28;19920;-77
2022/04/14 15:40:42;;;;;;;;;;;;;;;;;;5094558;28;19919;-76
2022/04/14 15:43:07;;;;;;;;;;;;;;;;;;5093250;28;19969;-77
2022/04/14 15:45:33;;;;;;;;;;;;;;;;;;5094650;28;20293;-76
2022/04/14 15:47:58;;;;;;;;;;;;;;;;;;5094782;28;19920;-76
2022/04/14 15:50:23;;;;;;;;;;;;;;;;;;5093141;28;19920;-76
2022/04/14 15:52:49;;;;;;;;;;;;;;;;;;5094292;28;19923;-76
2022/04/14 15:55:14;;;;;;;;;;;;;;;;;;5094048;28;19924;-76
2022/04/14 15:57:39;;;;;;;;;;;;;;;;;;5094084;28;20278;-76
2022/04/14 16:00:06;;;;;;;;;;;;;;;;;;5092979;28;19916;-75
2022/04/14 16:02:37;;;;;;;;;;;;;;;;;;5094594;28;19916;-76
2022/04/14 16:05:02;;;;;;;;;;;;;;;;;;5094050;28;19919;-76
2022/04/14 16:07:30;;;;;;;;;;;;;;;;;;5094259;28;19923;-76
2022/04/14 16:12:39;;;;;;;;;;;;;;;;;;5094041;28;19923;-76
2022/04/14 16:15:04;;;;;;;;;;;;;;;;;;5093162;28;19920;-75
2022/04/14 16:17:30;;;;;;;;;;;;;;;;;;5095359;28;19916;-76
2022/04/14 16:19:56;;;;;;;;;;;;;;;;;;5094809;28;19923;-76
2022/04/14 16:22:22;;;;;;;;;;;;;;;;;;5097287;28;19916;-75
2022/04/14 16:24:48;;;;;;;;;;;;;;;;;;5094494;28;19923;-76
2022/04/14 16:27:13;;;;;;;;;;;;;;;;;;5093378;28;19930;-76
2022/04/14 16:29:38;;;;;;;;;;;;;;;;;;5093880;28;20014;-75
2022/04/14 16:32:07;;;;;;;;;;;;;;;;;;5092985;28;19916;-76
2022/04/14 16:34:35;;;;;;;;;;;;;;;;;;5075917;28;19938;-76
2022/04/14 16:37:05;;;;;;;;;;;;;;;;;;5094606;28;19916;-76
2022/04/14 16:39:31;;;;;;;;;;;;;;;;;;5091180;28;19927;-76
2022/04/14 16:41:57;;;;;;;;;;;;;;;;;;5093396;28;19924;-76
2022/04/14 16:44:22;;;;;;;;;;;;;;;;;;5097189;28;19920;-76
2022/04/14 16:46:48;;;;;;;;;;;;;;;;;;5094476;28;19912;-76
2022/04/14 16:49:13;;;;;;;;;;;;;;;;;;5078078;28;20359;-77
2022/04/14 16:51:39;;;;;;;;;;;;;;;;;;5064241;28;19917;-75
2022/04/14 16:54:05;;;;;;;;;;;;;;;;;;5077332;28;19920;-76